Observation data for Floydada on 05/14/2018      Previous  Date  Next       Current Mesonet Observations  Soil Data  Daily Summary Page  Observations in Plain Language
KFLS 140500Z 15014KT 25/15 A2994 RMK A01 T02480154  RH  057%=      5-min Rain = 0
KFLS 140505Z 15014KT 25/15 A2994 RMK A01 T02480154  RH  057%=      5-min Rain = 0
KFLS 140510Z 15012KT 25/15 A2994 RMK A01 T02460154  RH  058%=      5-min Rain = 0
KFLS 140515Z 16011KT 25/15 A2994 RMK A01 T02450154  RH  058%=      5-min Rain = 0
KFLS 140520Z 15012G17KT 24/15 A2994 RMK A01 T02440154  RH  059%=      5-min Rain = 0
KFLS 140525Z 16011KT 24/15 A2995 RMK A01 T02430154  RH  059%=      5-min Rain = 0
KFLS 140530Z 16012KT 24/15 A2995 RMK A01 T02420154  RH  059%=      5-min Rain = 0
KFLS 140535Z 16011G16KT 24/15 A2995 RMK A01 T02420154  RH  059%=      5-min Rain = 0
KFLS 140540Z 16011KT 24/15 A2995 RMK A01 T02410154  RH  060%=      5-min Rain = 0
KFLS 140545Z 16011KT 24/15 A2995 RMK A01 T02400154  RH  060%=      5-min Rain = 0
KFLS 140550Z 16011KT 24/15 A2995 RMK A01 T02390154  RH  060%=      5-min Rain = 0
KFLS 140555Z 16011KT 24/15 A2995 RMK A01 T02380154  RH  061%=      5-min Rain = 0
KFLS 140600Z 16011KT 24/15 A2995 RMK A01 T02360153  RH  061%=      5-min Rain = 0
KFLS 140605Z 15011KT 24/15 A2995 RMK A01 T02350153  RH  061%=      5-min Rain = 0
KFLS 140610Z 15010KT 23/15 A2995 RMK A01 T02340153  RH  062%=      5-min Rain = 0
KFLS 140615Z 15010KT 23/15 A2995 RMK A01 T02330152  RH  062%=      5-min Rain = 0
KFLS 140620Z 15010KT 23/15 A2995 RMK A01 T02330152  RH  062%=      5-min Rain = 0
KFLS 140625Z 15009KT 23/15 A2995 RMK A01 T02310152  RH  062%=      5-min Rain = 0
KFLS 140630Z 16009KT 23/15 A2995 RMK A01 T02300152  RH  063%=      5-min Rain = 0
KFLS 140635Z 16009KT 23/15 A2995 RMK A01 T02290151  RH  063%=      5-min Rain = 0
KFLS 140640Z 16010KT 23/15 A2995 RMK A01 T02270151  RH  063%=      5-min Rain = 0
KFLS 140645Z 16010KT 23/15 A2995 RMK A01 T02270151  RH  064%=      5-min Rain = 0
KFLS 140650Z 17010KT 23/15 A2995 RMK A01 T02270151  RH  063%=      5-min Rain = 0
KFLS 140655Z 17010KT 23/15 A2994 RMK A01 T02270150  RH  063%=      5-min Rain = 0
KFLS 140700Z 17010KT 23/15 A2994 RMK A01 T02260150  RH  063%=      5-min Rain = 0
KFLS 140705Z 17010G15KT 23/15 A2994 RMK A01 T02260150  RH  063%=      5-min Rain = 0
KFLS 140710Z 17010KT 23/15 A2994 RMK A01 T02250150  RH  064%=      5-min Rain = 0
KFLS 140715Z 18011KT 23/15 A2994 RMK A01 T02250149  RH  064%=      5-min Rain = 0
KFLS 140720Z 18011KT 23/15 A2994 RMK A01 T02250149  RH  063%=      5-min Rain = 0
KFLS 140725Z 18010G15KT 22/15 A2993 RMK A01 T02240149  RH  064%=      5-min Rain = 0
KFLS 140730Z 17011KT 22/15 A2993 RMK A01 T02220149  RH  064%=      5-min Rain = 0
KFLS 140735Z 18011KT 22/15 A2993 RMK A01 T02230149  RH  064%=      5-min Rain = 0
KFLS 140740Z 17011KT 22/15 A2993 RMK A01 T02230149  RH  064%=      5-min Rain = 0
KFLS 140745Z 17010KT 22/15 A2993 RMK A01 T02220148  RH  065%=      5-min Rain = 0
KFLS 140750Z 17008KT 22/15 A2993 RMK A01 T02180148  RH  066%=      5-min Rain = 0
KFLS 140755Z 16009KT 22/15 A2993 RMK A01 T02150147  RH  067%=      5-min Rain = 0
KFLS 140800Z 17009KT 21/15 A2993 RMK A01 T02130147  RH  067%=      5-min Rain = 0
KFLS 140805Z 17008KT 21/15 A2993 RMK A01 T02130147  RH  067%=      5-min Rain = 0
KFLS 140810Z 17008KT 21/15 A2993 RMK A01 T02110147  RH  068%=      5-min Rain = 0
KFLS 140815Z 17010KT 21/15 A2993 RMK A01 T02120147  RH  068%=      5-min Rain = 0
KFLS 140820Z 17010KT 21/15 A2993 RMK A01 T02140147  RH  067%=      5-min Rain = 0
KFLS 140825Z 17010KT 21/15 A2993 RMK A01 T02130147  RH  067%=      5-min Rain = 0
KFLS 140830Z 17011KT 21/15 A2993 RMK A01 T02140147  RH  067%=      5-min Rain = 0
KFLS 140835Z 17010KT 21/15 A2993 RMK A01 T02130147  RH  067%=      5-min Rain = 0
KFLS 140840Z 17010KT 21/15 A2993 RMK A01 T02140147  RH  067%=      5-min Rain = 0
KFLS 140845Z 18009KT 21/15 A2993 RMK A01 T02120147  RH  068%=      5-min Rain = 0
KFLS 140850Z 18008KT 21/15 A2993 RMK A01 T02110147  RH  068%=      5-min Rain = 0
KFLS 140855Z 18008KT 21/15 A2993 RMK A01 T02090146  RH  069%=      5-min Rain = 0
KFLS 140900Z 18008KT 21/15 A2993 RMK A01 T02060146  RH  070%=      5-min Rain = 0
KFLS 140905Z 18008KT 21/15 A2993 RMK A01 T02060146  RH  070%=      5-min Rain = 0
KFLS 140910Z 18008KT 21/15 A2993 RMK A01 T02050147  RH  071%=      5-min Rain = 0
KFLS 140915Z 18008KT 21/15 A2993 RMK A01 T02050147  RH  071%=      5-min Rain = 0
KFLS 140920Z 18009KT 21/15 A2993 RMK A01 T02050147  RH  071%=      5-min Rain = 0
KFLS 140925Z 18009KT 21/15 A2993 RMK A01 T02050147  RH  071%=      5-min Rain = 0
KFLS 140930Z 18009KT 21/15 A2993 RMK A01 T02050147  RH  071%=      5-min Rain = 0
KFLS 140935Z 18009KT 21/15 A2993 RMK A01 T02050148  RH  071%=      5-min Rain = 0
KFLS 140940Z 18009KT 21/15 A2993 RMK A01 T02060148  RH  071%=      5-min Rain = 0
KFLS 140945Z 18010KT 21/15 A2993 RMK A01 T02060148  RH  071%=      5-min Rain = 0
KFLS 140950Z 18010KT 21/15 A2993 RMK A01 T02080149  RH  070%=      5-min Rain = 0
KFLS 140955Z 18010KT 21/15 A2993 RMK A01 T02080149  RH  070%=      5-min Rain = 0
KFLS 141000Z 18011KT 21/15 A2994 RMK A01 T02090149  RH  070%=      5-min Rain = 0
KFLS 141005Z 17010KT 21/15 A2994 RMK A01 T02080149  RH  070%=      5-min Rain = 0
KFLS 141010Z 17010KT 21/15 A2995 RMK A01 T02080150  RH  071%=      5-min Rain = 0
KFLS 141015Z 18010KT 21/15 A2995 RMK A01 T02080150  RH  071%=      5-min Rain = 0
KFLS 141020Z 18009KT 21/15 A2995 RMK A01 T02080150  RH  071%=      5-min Rain = 0
KFLS 141025Z 18009KT 21/15 A2995 RMK A01 T02070149  RH  071%=      5-min Rain = 0
KFLS 141030Z 18010KT 21/15 A2995 RMK A01 T02050149  RH  072%=      5-min Rain = 0
KFLS 141035Z 18009KT 21/15 A2995 RMK A01 T02060149  RH  072%=      5-min Rain = 0
KFLS 141040Z 17009KT 20/15 A2995 RMK A01 T02030149  RH  073%=      5-min Rain = 0
KFLS 141045Z 16008KT 20/15 A2995 RMK A01 T02010148  RH  073%=      5-min Rain = 0
KFLS 141050Z 17008KT 20/15 A2995 RMK A01 T01970147  RH  074%=      5-min Rain = 0
KFLS 141055Z 17007KT 20/15 A2995 RMK A01 T01950147  RH  075%=      5-min Rain = 0
KFLS 141100Z 17008KT 20/15 A2995 RMK A01 T01950148  RH  076%=      5-min Rain = 0
KFLS 141105Z 16009KT 19/15 A2995 RMK A01 T01930146  RH  076%=      5-min Rain = 0
KFLS 141110Z 16008KT 19/15 A2995 RMK A01 T01900145  RH  077%=      5-min Rain = 0
KFLS 141115Z 16010KT 19/15 A2995 RMK A01 T01900146  RH  077%=      5-min Rain = 0
KFLS 141120Z 17010KT 19/15 A2995 RMK A01 T01920147  RH  077%=      5-min Rain = 0
KFLS 141125Z 17010KT 19/15 A2995 RMK A01 T01930148  RH  077%=      5-min Rain = 0
KFLS 141130Z 17010KT 19/15 A2996 RMK A01 T01930148  RH  077%=      5-min Rain = 0
KFLS 141135Z 16009KT 19/15 A2996 RMK A01 T01900146  RH  077%=      5-min Rain = 0
KFLS 141140Z 17009KT 19/15 A2996 RMK A01 T01870146  RH  079%=      5-min Rain = 0
KFLS 141145Z 17009KT 19/15 A2996 RMK A01 T01880148  RH  079%=      5-min Rain = 0
KFLS 141150Z 17010KT 19/15 A2996 RMK A01 T01890149  RH  079%=      5-min Rain = 0
KFLS 141155Z 17010KT 19/15 A2996 RMK A01 T01900150  RH  079%=      5-min Rain = 0
KFLS 141200Z 17011KT 19/15 A2996 RMK A01 T01910151  RH  079%=      5-min Rain = 0
KFLS 141205Z 17011KT 20/15 A2996 RMK A01 T01950153  RH  078%=      5-min Rain = 0
KFLS 141210Z 17011KT 20/15 A2996 RMK A01 T01970153  RH  078%=      5-min Rain = 0
KFLS 141215Z 17009KT 20/15 A2997 RMK A01 T01960154  RH  078%=      5-min Rain = 0
KFLS 141220Z 17010KT 20/15 A2997 RMK A01 T01970154  RH  078%=      5-min Rain = 0
KFLS 141225Z 18009KT 20/16 A2997 RMK A01 T01980155  RH  078%=      5-min Rain = 0
KFLS 141230Z 18010KT 20/16 A2998 RMK A01 T01990155  RH  078%=      5-min Rain = 0
KFLS 141235Z 18011KT 20/16 A2998 RMK A01 T01990156  RH  078%=      5-min Rain = 0
KFLS 141240Z 18010KT 20/16 A2998 RMK A01 T02020157  RH  077%=      5-min Rain = 0
KFLS 141245Z 19010KT 20/16 A2998 RMK A01 T02030158  RH  077%=      5-min Rain = 0
KFLS 141250Z 19012KT 20/16 A2998 RMK A01 T02030158  RH  077%=      5-min Rain = 0
KFLS 141255Z 19012KT 20/16 A2998 RMK A01 T02020158  RH  077%=      5-min Rain = 0
KFLS 141300Z 19012KT 21/16 A2998 RMK A01 T02070160  RH  076%=      5-min Rain = 0
KFLS 141305Z 19013KT 21/16 A2998 RMK A01 T02110160  RH  074%=      5-min Rain = 0
KFLS 141310Z 19013KT 21/16 A2998 RMK A01 T02140161  RH  073%=      5-min Rain = 0
KFLS 141315Z 19013KT 22/16 A2998 RMK A01 T02160161  RH  073%=      5-min Rain = 0
KFLS 141320Z 19014KT 22/16 A2998 RMK A01 T02180162  RH  072%=      5-min Rain = 0
KFLS 141325Z 18014KT 22/16 A2998 RMK A01 T02200162  RH  071%=      5-min Rain = 0
KFLS 141330Z 19015G20KT 22/16 A2998 RMK A01 T02220163  RH  071%=      5-min Rain = 0
KFLS 141335Z 18014G20KT 23/16 A2998 RMK A01 T02250164  RH  070%=      5-min Rain = 0
KFLS 141340Z 19015G20KT 23/17 A2998 RMK A01 T02280165  RH  069%=      5-min Rain = 0
KFLS 141345Z 18017G22KT 23/17 A2998 RMK A01 T02300166  RH  069%=      5-min Rain = 0
KFLS 141350Z 18016G22KT 23/17 A2998 RMK A01 T02320166  RH  068%=      5-min Rain = 0
KFLS 141355Z 19014G20KT 24/17 A2998 RMK A01 T02350167  RH  067%=      5-min Rain = 0
KFLS 141400Z 19014G20KT 24/17 A2998 RMK A01 T02370168  RH  067%=      5-min Rain = 0
KFLS 141405Z 19016G22KT 24/17 A2998 RMK A01 T02390168  RH  066%=      5-min Rain = 0
KFLS 141410Z 19016KT 24/17 A2999 RMK A01 T02380167  RH  066%=      5-min Rain = 0
KFLS 141415Z 19017KT 24/17 A2999 RMK A01 T02350166  RH  067%=      5-min Rain = 0
KFLS 141420Z 19016G21KT 24/17 A2999 RMK A01 T02370167  RH  066%=      5-min Rain = 0
KFLS 141425Z 19017G22KT 24/17 A2999 RMK A01 T02400168  RH  066%=      5-min Rain = 0
KFLS 141430Z 19017KT 24/17 A2999 RMK A01 T02410167  RH  065%=      5-min Rain = 0
KFLS 141435Z 19016G22KT 24/17 A2999 RMK A01 T02420168  RH  065%=      5-min Rain = 0
KFLS 141440Z 19017G22KT 25/17 A2999 RMK A01 T02470168  RH  063%=      5-min Rain = 0
KFLS 141445Z 19016G21KT 25/17 A2999 RMK A01 T02520169  RH  061%=      5-min Rain = 0
KFLS 141450Z 20015G21KT 26/17 A2999 RMK A01 T02560169  RH  060%=      5-min Rain = 0
KFLS 141455Z 20017G22KT 26/17 A2999 RMK A01 T02550166  RH  059%=      5-min Rain = 0
KFLS 141500Z 20016G23KT 26/17 A2999 RMK A01 T02570167  RH  059%=      5-min Rain = 0
KFLS 141505Z 21016G22KT 26/17 A2999 RMK A01 T02590167  RH  058%=      5-min Rain = 0
KFLS 141510Z 20016G21KT 26/17 A2999 RMK A01 T02610167  RH  057%=      5-min Rain = 0
KFLS 141515Z 21016G21KT 26/17 A2999 RMK A01 T02630167  RH  057%=      5-min Rain = 0
KFLS 141520Z 21015G20KT 27/17 A2999 RMK A01 T02670167  RH  056%=      5-min Rain = 0
KFLS 141525Z 20015G21KT 27/17 A2999 RMK A01 T02660166  RH  055%=      5-min Rain = 0
KFLS 141530Z 21015G21KT 26/17 A2999 RMK A01 T02620165  RH  056%=      5-min Rain = 0
KFLS 141535Z 20014G20KT 27/17 A2999 RMK A01 T02690166  RH  055%=      5-min Rain = 0
KFLS 141540Z 21013G19KT 27/17 A2999 RMK A01 T02680165  RH  054%=      5-min Rain = 0
KFLS 141545Z 20012KT 27/16 A2999 RMK A01 T02720164  RH  053%=      5-min Rain = 0
KFLS 141550Z 20013KT 27/16 A2999 RMK A01 T02740162  RH  051%=      5-min Rain = 0
KFLS 141555Z 20014KT 27/16 A2999 RMK A01 T02710163  RH  053%=      5-min Rain = 0
KFLS 141600Z 20012G17KT 28/16 A2999 RMK A01 T02770162  RH  051%=      5-min Rain = 0
KFLS 141605Z 20014KT 28/16 A2999 RMK A01 T02770161  RH  050%=      5-min Rain = 0
KFLS 141610Z 21011G16KT 28/16 A2998 RMK A01 T02780158  RH  049%=      5-min Rain = 0
KFLS 141615Z 20012KT 28/16 A2998 RMK A01 T02810159  RH  049%=      5-min Rain = 0
KFLS 141620Z 20013KT 28/16 A2998 RMK A01 T02840158  RH  047%=      5-min Rain = 0
KFLS 141625Z 20012G17KT 29/15 A2998 RMK A01 T02860154  RH  046%=      5-min Rain = 0
KFLS 141630Z 21011KT 29/15 A2998 RMK A01 T02860147  RH  044%=      5-min Rain = 0
KFLS 141635Z 21011KT 29/15 A2998 RMK A01 T02880148  RH  044%=      5-min Rain = 0
KFLS 141640Z 20010KT 29/15 A2998 RMK A01 T02920145  RH  041%=      5-min Rain = 0
KFLS 141645Z 21010KT 30/14 A2998 RMK A01 T02950138  RH  039%=      5-min Rain = 0
KFLS 141650Z 20010G16KT 29/14 A2998 RMK A01 T02920141  RH  041%=      5-min Rain = 0
KFLS 141655Z 22010KT 30/14 A2998 RMK A01 T03010141  RH  038%=      5-min Rain = 0
KFLS 141700Z 20009G15KT 30/13 A2998 RMK A01 T02970131  RH  037%=      5-min Rain = 0
KFLS 141705Z 21011G16KT 30/14 A2998 RMK A01 T03040137  RH  037%=      5-min Rain = 0
KFLS 141710Z 20008KT 30/13 A2998 RMK A01 T03010130  RH  036%=      5-min Rain = 0
KFLS 141715Z 20010G15KT 30/14 A2998 RMK A01 T03030135  RH  037%=      5-min Rain = 0
KFLS 141720Z 18010KT 31/14 A2998 RMK A01 T03070137  RH  036%=      5-min Rain = 0
KFLS 141725Z 18009KT 31/14 A2997 RMK A01 T03070135  RH  036%=      5-min Rain = 0
KFLS 141730Z 21007KT 31/13 A2997 RMK A01 T03090131  RH  034%=      5-min Rain = 0
KFLS 141735Z 22009KT 31/13 A2997 RMK A01 T03090126  RH  033%=      5-min Rain = 0
KFLS 141740Z 21008G13KT 31/12 A2997 RMK A01 T03090123  RH  033%=      5-min Rain = 0
KFLS 141745Z 17004KT 31/12 A2997 RMK A01 T03080124  RH  033%=      5-min Rain = 0
KFLS 141750Z 18006G12KT 32/12 A2997 RMK A01 T03160123  RH  031%=      5-min Rain = 0
KFLS 141755Z 17008G13KT 31/12 A2997 RMK A01 T03140120  RH  031%=      5-min Rain = 0
KFLS 141800Z 20007G12KT 31/13 A2996 RMK A01 T03130125  RH  032%=      5-min Rain = 0
KFLS 141805Z 20007G13KT 31/12 A2996 RMK A01 T03100121  RH  032%=      5-min Rain = 0
KFLS 141810Z 17007KT 31/12 A2996 RMK A01 T03120121  RH  032%=      5-min Rain = 0
KFLS 141815Z 23007G12KT 32/12 A2996 RMK A01 T03170121  RH  031%=      5-min Rain = 0
KFLS 141820Z 21008G13KT 32/12 A2996 RMK A01 T03170119  RH  030%=      5-min Rain = 0
KFLS 141825Z 23008KT 32/11 A2995 RMK A01 T03190110  RH  028%=      5-min Rain = 0
KFLS 141830Z 20007G13KT 32/11 A2995 RMK A01 T03230113  RH  028%=      5-min Rain = 0
KFLS 141835Z 19009G15KT 32/11 A2995 RMK A01 T03230110  RH  028%=      5-min Rain = 0
KFLS 141840Z 20008G15KT 32/11 A2995 RMK A01 T03200111  RH  028%=      5-min Rain = 0
KFLS 141845Z 20008KT 32/11 A2995 RMK A01 T03240106  RH  027%=      5-min Rain = 0
KFLS 141850Z 22010KT 33/11 A2995 RMK A01 T03270111  RH  027%=      5-min Rain = 0
KFLS 141855Z 20005G10KT 32/11 A2995 RMK A01 T03240109  RH  027%=      5-min Rain = 0
KFLS 141900Z 14006G12KT 33/11 A2994 RMK A01 T03260111  RH  027%=      5-min Rain = 0
KFLS 141905Z 18010G16KT 33/11 A2994 RMK A01 T03300111  RH  027%=      5-min Rain = 0
KFLS 141910Z 19008G16KT 33/11 A2994 RMK A01 T03300106  RH  026%=      5-min Rain = 0
KFLS 141915Z 18011G16KT 33/11 A2994 RMK A01 T03320110  RH  026%=      5-min Rain = 0
KFLS 141920Z 18006G12KT 33/11 A2994 RMK A01 T03290110  RH  027%=      5-min Rain = 0
KFLS 141925Z 19010G15KT 33/11 A2993 RMK A01 T03340111  RH  026%=      5-min Rain = 0
KFLS 141930Z 16011G17KT 33/10 A2993 RMK A01 T03310103  RH  025%=      5-min Rain = 0
KFLS 141935Z 16010G15KT 33/11 A2993 RMK A01 T03280108  RH  026%=      5-min Rain = 0
KFLS 141940Z 19007G12KT 32/12 A2993 RMK A01 T03210117  RH  029%=      5-min Rain = 0
KFLS 141945Z 20008G17KT 33/12 A2992 RMK A01 T03260117  RH  028%=      5-min Rain = 0
KFLS 141950Z 20013G20KT 34/12 A2992 RMK A01 T03360120  RH  027%=      5-min Rain = 0
KFLS 141955Z 18009G18KT 33/12 A2992 RMK A01 T03280117  RH  028%=      5-min Rain = 0
KFLS 142000Z 17011G16KT 34/11 A2992 RMK A01 T03400109  RH  025%=      5-min Rain = 0
KFLS 142005Z 17010G15KT 34/12 A2992 RMK A01 T03350121  RH  028%=      5-min Rain = 0
KFLS 142010Z 18012G17KT 33/12 A2992 RMK A01 T03260118  RH  028%=      5-min Rain = 0
KFLS 142015Z 18011G16KT 32/12 A2991 RMK A01 T03200118  RH  030%=      5-min Rain = 0
KFLS 142020Z 16008G13KT 33/11 A2991 RMK A01 T03310113  RH  027%=      5-min Rain = 0
KFLS 142025Z 17013G19KT 33/12 A299 RMK A01 T03260122  RH  029%=      5-min Rain = 0
KFLS 142030Z 18013G18KT 33/13 A299 RMK A01 T03300126  RH  030%=      5-min Rain = 0
KFLS 142035Z 18009KT 32/12 A2989 RMK A01 T03190118  RH  030%=      5-min Rain = 0
KFLS 142040Z 18008KT 32/12 A2989 RMK A01 T03170119  RH  030%=      5-min Rain = 0
KFLS 142045Z 16009KT 32/12 A2988 RMK A01 T03170115  RH  029%=      5-min Rain = 0
KFLS 142050Z 15011G16KT 32/12 A2987 RMK A01 T03150119  RH  031%=      5-min Rain = 0
KFLS 142055Z 17012KT 31/12 A2987 RMK A01 T03100119  RH  031%=      5-min Rain = 0
KFLS 142100Z 15008KT 31/12 A2987 RMK A01 T03080116  RH  031%=      5-min Rain = 0
KFLS 142105Z 18009KT 31/11 A2987 RMK A01 T03060110  RH  030%=      5-min Rain = 0
KFLS 142110Z 17008KT 31/11 A2987 RMK A01 T03050110  RH  031%=      5-min Rain = 0
KFLS 142115Z 18010G15KT 30/12 A2987 RMK A01 T02980119  RH  034%=      5-min Rain = 0
KFLS 142120Z 19012KT 29/12 A2987 RMK A01 T02940117  RH  034%=      5-min Rain = 0
KFLS 142125Z 20009G14KT 29/12 A2987 RMK A01 T02910124  RH  036%=      5-min Rain = 0
KFLS 142130Z 22013G31KT 29/13 A2988 RMK A01 T02890130  RH  038%=      5-min Rain = 0
KFLS 142135Z 24022G34KT 24/16 A2989 RMK A01 T02420156  RH  060%=      5-min Rain = 0
KFLS 142140Z 25021G26KT 21/16 A2991 RMK A01 T02130159  RH  073%=      5-min Rain = 0
KFLS 142145Z 24027G37KT 20/15 A2992 RMK A01 T02030154  RH  075%=      5-min Rain = 0.12
KFLS 142150Z 28018G28KT 21/13 A2992 RMK A01 T02070125  RH  061%=      5-min Rain = 0.17
KFLS 142155Z 28011G20KT 21/13 A2992 RMK A01 T02140127  RH  059%=      5-min Rain = 0.04
KFLS 142200Z 23011G17KT 20/14 A2992 RMK A01 T02000141  RH  070%=      5-min Rain = 0.09
KFLS 142205Z 29007KT 19/15 A299 RMK A01 T01900145  RH  077%=      5-min Rain = 0.01
KFLS 142210Z 28008KT 19/14 A2991 RMK A01 T01940139  RH  072%=      5-min Rain = 0
KFLS 142215Z 27010KT 19/15 A2991 RMK A01 T01940148  RH  077%=      5-min Rain = 0.03
KFLS 142220Z 26005KT 19/15 A299 RMK A01 T01900152  RH  080%=      5-min Rain = 0.03
KFLS 142225Z 00005KT 19/16 A2989 RMK A01 T01920157  RH  082%=      5-min Rain = 0.07
KFLS 142230Z 01007KT 19/16 A2987 RMK A01 T01940155  RH  080%=      5-min Rain = 0
KFLS 142235Z 34008KT 20/15 A2987 RMK A01 T01990150  RH  075%=      5-min Rain = 0
KFLS 142240Z 34011KT 21/14 A2987 RMK A01 T02050142  RH  068%=      5-min Rain = 0
KFLS 142245Z 31013G19KT 21/15 A2988 RMK A01 T02050148  RH  071%=      5-min Rain = 0
KFLS 142250Z 29017G25KT 20/13 A2989 RMK A01 T02020134  RH  067%=      5-min Rain = 0
KFLS 142255Z 30022G27KT 21/11 A2988 RMK A01 T02060109  RH  055%=      5-min Rain = 0.01
KFLS 142300Z 31024G32KT 19/12 A2989 RMK A01 T01880117  RH  065%=      5-min Rain = 0.11
KFLS 142305Z 33018G25KT 19/12 A2988 RMK A01 T01880123  RH  067%=      5-min Rain = 0.06
KFLS 142310Z 33013KT 20/12 A2989 RMK A01 T01990122  RH  062%=      5-min Rain = 0.01
KFLS 142315Z 34008KT 20/13 A2988 RMK A01 T01970125  RH  065%=      5-min Rain = 0
KFLS 142320Z 34008KT 19/14 A2988 RMK A01 T01940135  RH  070%=      5-min Rain = 0
KFLS 142325Z 36008KT 20/14 A2988 RMK A01 T02040136  RH  066%=      5-min Rain = 0
KFLS 142330Z 07008G17KT 21/16 A2989 RMK A01 T02110158  RH  073%=      5-min Rain = 0
KFLS 142335Z 12016KT 22/15 A299 RMK A01 T02220147  RH  064%=      5-min Rain = 0
KFLS 142340Z 14015G21KT 23/14 A299 RMK A01 T02300137  RH  057%=      5-min Rain = 0
KFLS 142345Z 14014G19KT 23/13 A299 RMK A01 T02340134  RH  055%=      5-min Rain = 0
KFLS 142350Z 13011G16KT 23/14 A299 RMK A01 T02290137  RH  057%=      5-min Rain = 0
KFLS 142355Z 11016G22KT 23/13 A2991 RMK A01 T02280132  RH  056%=      5-min Rain = 0
KFLS 150000Z 11015KT 22/15 A299 RMK A01 T02240148  RH  063%=      5-min Rain = 0
KFLS 150005Z 10014KT 22/15 A299 RMK A01 T02210150  RH  065%=      5-min Rain = 0
KFLS 150010Z 11013G18KT 22/15 A299 RMK A01 T02180154  RH  069%=      5-min Rain = 0
KFLS 150015Z 11015KT 22/16 A299 RMK A01 T02180156  RH  069%=      5-min Rain = 0
KFLS 150020Z 11015G20KT 22/15 A299 RMK A01 T02200153  RH  067%=      5-min Rain = 0
KFLS 150025Z 10014G19KT 22/15 A299 RMK A01 T02180152  RH  067%=      5-min Rain = 0
KFLS 150030Z 10013G19KT 22/15 A299 RMK A01 T02210146  RH  064%=      5-min Rain = 0
KFLS 150035Z 09015G21KT 23/14 A299 RMK A01 T02260138  RH  059%=      5-min Rain = 0
KFLS 150040Z 09013KT 22/14 A299 RMK A01 T02240143  RH  061%=      5-min Rain = 0
KFLS 150045Z 09013G18KT 22/13 A299 RMK A01 T02240132  RH  057%=      5-min Rain = 0
KFLS 150050Z 09014KT 22/13 A299 RMK A01 T02230125  RH  055%=      5-min Rain = 0
KFLS 150055Z 09014KT 22/12 A299 RMK A01 T02230121  RH  054%=      5-min Rain = 0
KFLS 150100Z 09013KT 22/11 A299 RMK A01 T02230114  RH  051%=      5-min Rain = 0
KFLS 150105Z 09012KT 22/11 A299 RMK A01 T02220110  RH  050%=      5-min Rain = 0
KFLS 150110Z 08014KT 22/11 A299 RMK A01 T02210110  RH  050%=      5-min Rain = 0
KFLS 150115Z 08012G17KT 22/11 A299 RMK A01 T02190111  RH  051%=      5-min Rain = 0
KFLS 150120Z 08011G16KT 22/11 A299 RMK A01 T02150113  RH  053%=      5-min Rain = 0
KFLS 150125Z 09012G19KT 21/11 A299 RMK A01 T02110114  RH  055%=      5-min Rain = 0
KFLS 150130Z 09013KT 22/11 A2991 RMK A01 T02150108  RH  051%=      5-min Rain = 0
KFLS 150135Z 09012KT 21/11 A2991 RMK A01 T02110109  RH  053%=      5-min Rain = 0
KFLS 150140Z 09013KT 21/12 A299 RMK A01 T02090115  RH  056%=      5-min Rain = 0
KFLS 150145Z 09012KT 21/12 A2991 RMK A01 T02070118  RH  058%=      5-min Rain = 0
KFLS 150150Z 09011KT 20/12 A2991 RMK A01 T02040119  RH  059%=      5-min Rain = 0
KFLS 150155Z 09012KT 20/12 A2991 RMK A01 T02030118  RH  059%=      5-min Rain = 0
KFLS 150200Z 09012KT 20/12 A2991 RMK A01 T02030115  RH  058%=      5-min Rain = 0
KFLS 150205Z 09012KT 20/12 A2992 RMK A01 T02010116  RH  059%=      5-min Rain = 0
KFLS 150210Z 10013KT 20/12 A2992 RMK A01 T01990119  RH  061%=      5-min Rain = 0
KFLS 150215Z 10012KT 20/12 A2992 RMK A01 T01980121  RH  062%=      5-min Rain = 0
KFLS 150220Z 10013KT 20/12 A2992 RMK A01 T01990121  RH  062%=      5-min Rain = 0
KFLS 150225Z 09013KT 20/12 A2992 RMK A01 T01980121  RH  062%=      5-min Rain = 0
KFLS 150230Z 09011KT 20/12 A2993 RMK A01 T01950122  RH  064%=      5-min Rain = 0
KFLS 150235Z 09012KT 19/12 A2993 RMK A01 T01940122  RH  064%=      5-min Rain = 0
KFLS 150240Z 09011KT 19/12 A2993 RMK A01 T01930121  RH  064%=      5-min Rain = 0
KFLS 150245Z 09012KT 19/12 A2993 RMK A01 T01920121  RH  065%=      5-min Rain = 0
KFLS 150250Z 10011KT 19/12 A2993 RMK A01 T01910121  RH  065%=      5-min Rain = 0
KFLS 150255Z 10012KT 19/12 A2993 RMK A01 T01910119  RH  064%=      5-min Rain = 0
KFLS 150300Z 10012KT 19/12 A2992 RMK A01 T01910119  RH  064%=      5-min Rain = 0
KFLS 150305Z 10011KT 19/12 A2993 RMK A01 T01910119  RH  065%=      5-min Rain = 0
KFLS 150310Z 10009KT 19/12 A2993 RMK A01 T01890120  RH  066%=      5-min Rain = 0
KFLS 150315Z 10009KT 19/12 A2993 RMK A01 T01860121  RH  067%=      5-min Rain = 0
KFLS 150320Z 10008KT 18/12 A2993 RMK A01 T01830122  RH  069%=      5-min Rain = 0
KFLS 150325Z 11006KT 18/12 A2993 RMK A01 T01790122  RH  071%=      5-min Rain = 0
KFLS 150330Z 11007KT 18/12 A2993 RMK A01 T01790123  RH  071%=      5-min Rain = 0
KFLS 150335Z 11007KT 18/12 A2993 RMK A01 T01790124  RH  071%=      5-min Rain = 0
KFLS 150340Z 12006KT 18/12 A2993 RMK A01 T01780124  RH  072%=      5-min Rain = 0
KFLS 150345Z 13005KT 18/13 A2993 RMK A01 T01780125  RH  073%=      5-min Rain = 0
KFLS 150350Z 14004KT 18/13 A2993 RMK A01 T01760126  RH  074%=      5-min Rain = 0
KFLS 150355Z 15003KT 17/13 A2994 RMK A01 T01740125  RH  074%=      5-min Rain = 0
KFLS 150400Z 14003KT 18/12 A2995 RMK A01 T01760124  RH  073%=      5-min Rain = 0
KFLS 150405Z 03002KT 18/13 A2995 RMK A01 T01780126  RH  073%=      5-min Rain = 0
KFLS 150410Z 34008KT 18/13 A2996 RMK A01 T01770132  RH  076%=      5-min Rain = 0
KFLS 150415Z 34009KT 18/13 A2998 RMK A01 T01780132  RH  076%=      5-min Rain = 0
KFLS 150420Z 00005G10KT 18/13 A2998 RMK A01 T01820131  RH  073%=      5-min Rain = 0
KFLS 150425Z 07006KT 19/13 A2997 RMK A01 T01910129  RH  069%=      5-min Rain = 0
KFLS 150430Z 05007G14KT 19/13 A2997 RMK A01 T01900132  RH  071%=      5-min Rain = 0
KFLS 150435Z 05005KT 18/14 A2997 RMK A01 T01830136  RH  075%=      5-min Rain = 0
KFLS 150440Z 02004KT 18/14 A2998 RMK A01 T01800137  RH  078%=      5-min Rain = 0
KFLS 150445Z 08004KT 19/14 A2998 RMK A01 T01850136  RH  074%=      5-min Rain = 0
KFLS 150450Z 13005G10KT 19/14 A2998 RMK A01 T01900139  RH  074%=      5-min Rain = 0.01
KFLS 150455Z 13010KT 19/15 A2998 RMK A01 T01910145  RH  076%=      5-min Rain = 0.02

Page generated in 0.0096 seconds.